Time;durP1;ratioP1;P1;durP2;ratioP2;P2;SDS_P1;SDS_P2;PMS_P1;PMS_P2;Temp;Humidity;BMP_temperature;BMP_pressure;BME280_temperature;BME280_humidity;BME280_pressure;Samples;Min_cycle;Max_cycle;Signal;HPM_P1;HPM_P2
2022/05/18 00:00:30;;;;;;;;;;;;;;;;;;5046387;28;1247;-79
2022/05/18 00:03:08;;;;;;;;;;;;;;;;;;5049888;28;1157;-79
2022/05/18 00:05:44;;;;;;;;;;;;;;;;;;5057397;28;1197;-79
2022/05/18 00:08:10;;;;;;;;;;;;;;;;;;5069455;28;1179;-79
2022/05/18 00:10:40;;;;;;;;;;;;;;;;;;5055956;28;1326;-77
2022/05/18 00:13:06;;;;;;;;;;;;;;;;;;5032949;28;1337;-78
2022/05/18 00:15:31;;;;;;;;;;;;;;;;;;5058493;28;1906;-79
2022/05/18 00:17:57;;;;;;;;;;;;;;;;;;5048361;28;1215;-79
2022/05/18 00:20:22;;;;;;;;;;;;;;;;;;5038482;28;1169;-79
2022/05/18 00:22:47;;;;;;;;;;;;;;;;;;5085117;28;1220;-78
2022/05/18 00:25:24;;;;;;;;;;;;;;;;;;5061638;28;1192;-78
2022/05/18 00:27:49;;;;;;;;;;;;;;;;;;5062919;28;1255;-78
2022/05/18 00:30:16;;;;;;;;;;;;;;;;;;5064403;28;1257;-80
2022/05/18 00:32:42;;;;;;;;;;;;;;;;;;5036350;28;1447;-79
2022/05/18 00:35:07;;;;;;;;;;;;;;;;;;5053205;28;1898;-78
2022/05/18 00:37:32;;;;;;;;;;;;;;;;;;5068468;28;1346;-79
2022/05/18 00:39:58;;;;;;;;;;;;;;;;;;5063706;28;1263;-78
2022/05/18 00:42:24;;;;;;;;;;;;;;;;;;5066595;28;1301;-79
2022/05/18 00:44:50;;;;;;;;;;;;;;;;;;5063581;28;1191;-79
2022/05/18 00:47:15;;;;;;;;;;;;;;;;;;5069970;28;944;-79
2022/05/18 00:50:07;;;;;;;;;;;;;;;;;;5058381;28;1159;-78
2022/05/18 00:52:42;;;;;;;;;;;;;;;;;;5043333;28;1369;-79
2022/05/18 00:55:10;;;;;;;;;;;;;;;;;;5071660;28;1909;-79
2022/05/18 00:57:42;;;;;;;;;;;;;;;;;;5072511;28;1061;-78
2022/05/18 01:00:08;;;;;;;;;;;;;;;;;;5071052;28;1174;-79
2022/05/18 01:02:36;;;;;;;;;;;;;;;;;;5071517;28;1148;-78
2022/05/18 01:05:03;;;;;;;;;;;;;;;;;;5066819;28;1265;-79
2022/05/18 01:07:44;;;;;;;;;;;;;;;;;;5055248;28;1183;-79
2022/05/18 01:10:10;;;;;;;;;;;;;;;;;;5057034;28;1353;-80
2022/05/18 01:12:35;;;;;;;;;;;;;;;;;;5078824;28;1369;-79
2022/05/18 01:15:08;;;;;;;;;;;;;;;;;;5089218;28;1998;-80
2022/05/18 01:17:38;;;;;;;;;;;;;;;;;;5091165;28;1348;-80
2022/05/18 01:20:05;;;;;;;;;;;;;;;;;;5066660;28;1371;-81
2022/05/18 01:22:33;;;;;;;;;;;;;;;;;;5071881;28;1274;-81
2022/05/18 01:25:08;;;;;;;;;;;;;;;;;;5088633;28;814;-80
2022/05/18 01:27:33;;;;;;;;;;;;;;;;;;5091670;28;900;-81
2022/05/18 01:29:58;;;;;;;;;;;;;;;;;;5053902;28;1329;-80
2022/05/18 01:32:24;;;;;;;;;;;;;;;;;;5071629;28;1214;-80
2022/05/18 01:34:50;;;;;;;;;;;;;;;;;;5086944;28;905;-80
2022/05/18 01:37:15;;;;;;;;;;;;;;;;;;5074687;28;1945;-80
2022/05/18 01:39:47;;;;;;;;;;;;;;;;;;5071286;28;1407;-80
2022/05/18 01:42:21;;;;;;;;;;;;;;;;;;5071317;28;1089;-81
2022/05/18 01:44:47;;;;;;;;;;;;;;;;;;5056761;28;1354;-81
2022/05/18 01:47:12;;;;;;;;;;;;;;;;;;5052068;28;1283;-80
2022/05/18 01:49:50;;;;;;;;;;;;;;;;;;5067692;28;1207;-82
2022/05/18 01:52:16;;;;;;;;;;;;;;;;;;5054730;28;1171;-80
2022/05/18 01:54:59;;;;;;;;;;;;;;;;;;5053025;28;1287;-81
2022/05/18 01:57:25;;;;;;;;;;;;;;;;;;5049445;28;1136;-80
2022/05/18 01:59:50;;;;;;;;;;;;;;;;;;5045312;28;1163;-81
2022/05/18 02:02:15;;;;;;;;;;;;;;;;;;5048991;28;1152;-81
2022/05/18 02:04:50;;;;;;;;;;;;;;;;;;5044392;28;1193;-81
2022/05/18 02:07:15;;;;;;;;;;;;;;;;;;5048976;28;1153;-82
2022/05/18 02:09:41;;;;;;;;;;;;;;;;;;5046308;28;1298;-81
2022/05/18 02:12:07;;;;;;;;;;;;;;;;;;5048226;28;1167;-81
2022/05/18 02:14:32;;;;;;;;;;;;;;;;;;5050339;28;1227;-81
2022/05/18 02:16:58;;;;;;;;;;;;;;;;;;5049623;28;1958;-81
2022/05/18 02:19:23;;;;;;;;;;;;;;;;;;5046638;28;1461;-82
2022/05/18 02:21:49;;;;;;;;;;;;;;;;;;5043313;28;1152;-81
2022/05/18 02:24:15;;;;;;;;;;;;;;;;;;5048712;28;1390;-82
2022/05/18 02:26:40;;;;;;;;;;;;;;;;;;5047678;28;1296;-83
2022/05/18 02:29:05;;;;;;;;;;;;;;;;;;5046475;28;1172;-82
2022/05/18 02:31:30;;;;;;;;;;;;;;;;;;5064096;28;1188;-82
2022/05/18 02:33:56;;;;;;;;;;;;;;;;;;5046111;28;1354;-82
2022/05/18 02:36:21;;;;;;;;;;;;;;;;;;5041665;28;1882;-81
2022/05/18 02:38:50;;;;;;;;;;;;;;;;;;5047543;28;1247;-82
2022/05/18 02:41:17;;;;;;;;;;;;;;;;;;5046913;28;1314;-81
2022/05/18 02:43:42;;;;;;;;;;;;;;;;;;5049421;28;1184;-81
2022/05/18 02:46:15;;;;;;;;;;;;;;;;;;5048960;28;1293;-81
2022/05/18 02:48:41;;;;;;;;;;;;;;;;;;5045803;28;1172;-81
2022/05/18 02:51:07;;;;;;;;;;;;;;;;;;5045282;28;1152;-82
2022/05/18 02:53:33;;;;;;;;;;;;;;;;;;5051576;28;1281;-81
2022/05/18 02:56:07;;;;;;;;;;;;;;;;;;5050932;28;1929;-81
2022/05/18 02:58:36;;;;;;;;;;;;;;;;;;5054343;28;1224;-80
2022/05/18 03:01:06;;;;;;;;;;;;;;;;;;5053863;28;1188;-80
2022/05/18 03:03:31;;;;;;;;;;;;;;;;;;5051559;28;1175;-80
2022/05/18 03:05:57;;;;;;;;;;;;;;;;;;5047051;28;1188;-80
2022/05/18 03:08:22;;;;;;;;;;;;;;;;;;5053746;28;1253;-79
2022/05/18 03:10:50;;;;;;;;;;;;;;;;;;5053944;28;1163;-80
2022/05/18 03:13:16;;;;;;;;;;;;;;;;;;5053873;28;1382;-80
2022/05/18 03:15:41;;;;;;;;;;;;;;;;;;5053676;28;1894;-81
2022/05/18 03:18:06;;;;;;;;;;;;;;;;;;5053641;28;1370;-80
2022/05/18 03:23:33;;;;;;;;;;;;;;;;;;5054640;28;978;-80
2022/05/18 03:26:19;;;;;;;;;;;;;;;;;;5053099;28;1208;-80
2022/05/18 03:28:45;;;;;;;;;;;;;;;;;;5053567;28;1195;-80
2022/05/18 03:31:10;;;;;;;;;;;;;;;;;;5052772;28;1239;-80
2022/05/18 03:33:36;;;;;;;;;;;;;;;;;;5053302;28;1202;-80
2022/05/18 03:36:02;;;;;;;;;;;;;;;;;;5053350;28;1894;-79
2022/05/18 03:38:27;;;;;;;;;;;;;;;;;;5051531;28;1192;-79
2022/05/18 03:40:53;;;;;;;;;;;;;;;;;;5050556;28;802;-79
2022/05/18 03:43:18;;;;;;;;;;;;;;;;;;5068511;28;906;-79
2022/05/18 03:45:44;;;;;;;;;;;;;;;;;;5066640;28;953;-79
2022/05/18 03:48:13;;;;;;;;;;;;;;;;;;5052523;28;1089;-78
2022/05/18 03:50:41;;;;;;;;;;;;;;;;;;5053112;28;1211;-79
2022/05/18 03:53:07;;;;;;;;;;;;;;;;;;5054113;28;1270;-80
2022/05/18 03:55:32;;;;;;;;;;;;;;;;;;5055096;28;1959;-79
2022/05/18 03:57:57;;;;;;;;;;;;;;;;;;5060975;28;1279;-79
2022/05/18 04:00:23;;;;;;;;;;;;;;;;;;5060528;28;1252;-79
2022/05/18 04:02:48;;;;;;;;;;;;;;;;;;5044496;28;1164;-78
2022/05/18 04:05:15;;;;;;;;;;;;;;;;;;5059480;28;1262;-79
2022/05/18 04:07:40;;;;;;;;;;;;;;;;;;5062376;28;1291;-79
2022/05/18 04:10:06;;;;;;;;;;;;;;;;;;5045722;28;1250;-79
2022/05/18 04:12:31;;;;;;;;;;;;;;;;;;5059415;28;1243;-78
2022/05/18 04:14:57;;;;;;;;;;;;;;;;;;5072847;28;1376;-79
2022/05/18 04:17:23;;;;;;;;;;;;;;;;;;5087373;28;1923;-79
2022/05/18 04:19:48;;;;;;;;;;;;;;;;;;5064476;28;1072;-79
2022/05/18 04:22:13;;;;;;;;;;;;;;;;;;5070618;28;1245;-79
2022/05/18 04:24:39;;;;;;;;;;;;;;;;;;5089228;28;901;-79
2022/05/18 04:27:06;;;;;;;;;;;;;;;;;;5072396;28;1404;-79
2022/05/18 04:29:31;;;;;;;;;;;;;;;;;;5072404;28;1346;-78
2022/05/18 04:31:56;;;;;;;;;;;;;;;;;;5072183;28;1146;-78
2022/05/18 04:34:22;;;;;;;;;;;;;;;;;;5073519;28;929;-79
2022/05/18 04:36:47;;;;;;;;;;;;;;;;;;5072142;28;1881;-79
2022/05/18 04:39:12;;;;;;;;;;;;;;;;;;5065902;28;1216;-81
2022/05/18 04:41:37;;;;;;;;;;;;;;;;;;5062403;28;1130;-80
2022/05/18 04:44:03;;;;;;;;;;;;;;;;;;5037808;28;1293;-79
2022/05/18 04:46:28;;;;;;;;;;;;;;;;;;5065238;28;1136;-79
2022/05/18 04:48:53;;;;;;;;;;;;;;;;;;5032675;28;1177;-79
2022/05/18 04:51:19;;;;;;;;;;;;;;;;;;5042809;28;1138;-79
2022/05/18 04:53:46;;;;;;;;;;;;;;;;;;5054025;28;1240;-78
2022/05/18 04:56:11;;;;;;;;;;;;;;;;;;5063868;28;1974;-80
2022/05/18 04:58:37;;;;;;;;;;;;;;;;;;5055214;28;1212;-79
2022/05/18 05:01:04;;;;;;;;;;;;;;;;;;5067205;28;1167;-79
2022/05/18 05:03:30;;;;;;;;;;;;;;;;;;5045971;28;1257;-79
2022/05/18 05:05:55;;;;;;;;;;;;;;;;;;5040520;28;1361;-79
2022/05/18 05:08:20;;;;;;;;;;;;;;;;;;5057422;28;1526;-79
2022/05/18 05:10:45;;;;;;;;;;;;;;;;;;5062812;28;1180;-80
2022/05/18 05:13:11;;;;;;;;;;;;;;;;;;5070159;28;1165;-80
2022/05/18 05:15:37;;;;;;;;;;;;;;;;;;5072067;28;1874;-79
2022/05/18 05:18:02;;;;;;;;;;;;;;;;;;5072764;28;1341;-79
2022/05/18 05:20:27;;;;;;;;;;;;;;;;;;5072457;28;1151;-79
2022/05/18 05:22:52;;;;;;;;;;;;;;;;;;5089073;28;865;-79
2022/05/18 05:25:18;;;;;;;;;;;;;;;;;;5072431;28;1185;-79
2022/05/18 05:27:43;;;;;;;;;;;;;;;;;;5072350;28;1237;-79
2022/05/18 05:30:09;;;;;;;;;;;;;;;;;;5089529;28;885;-79
2022/05/18 05:32:35;;;;;;;;;;;;;;;;;;5089324;28;1116;-78
2022/05/18 05:35:00;;;;;;;;;;;;;;;;;;5069591;28;1287;-80
2022/05/18 05:37:46;;;;;;;;;;;;;;;;;;5051271;28;1957;-80
2022/05/18 05:40:11;;;;;;;;;;;;;;;;;;5066350;28;1320;-80
2022/05/18 05:42:37;;;;;;;;;;;;;;;;;;5053789;28;1200;-79
2022/05/18 05:45:03;;;;;;;;;;;;;;;;;;5055684;28;1157;-80
2022/05/18 05:47:28;;;;;;;;;;;;;;;;;;5040899;28;1188;-79
2022/05/18 05:49:54;;;;;;;;;;;;;;;;;;5051311;28;1326;-79
2022/05/18 05:52:19;;;;;;;;;;;;;;;;;;5041394;28;1153;-79
2022/05/18 05:54:47;;;;;;;;;;;;;;;;;;5023660;28;1331;-79
2022/05/18 05:57:13;;;;;;;;;;;;;;;;;;5062374;28;1910;-78
2022/05/18 05:59:38;;;;;;;;;;;;;;;;;;5071449;28;1252;-79
2022/05/18 06:02:07;;;;;;;;;;;;;;;;;;5092395;28;1455;-77
2022/05/18 06:04:34;;;;;;;;;;;;;;;;;;5075070;28;1312;-79
2022/05/18 06:06:59;;;;;;;;;;;;;;;;;;5093319;28;1159;-78
2022/05/18 06:09:25;;;;;;;;;;;;;;;;;;5076287;28;894;-80
2022/05/18 06:11:50;;;;;;;;;;;;;;;;;;5074817;28;1328;-79
2022/05/18 06:14:16;;;;;;;;;;;;;;;;;;5074803;28;1200;-78
2022/05/18 06:16:41;;;;;;;;;;;;;;;;;;5061454;28;1967;-80
2022/05/18 06:19:09;;;;;;;;;;;;;;;;;;5072447;28;1219;-81
2022/05/18 06:21:34;;;;;;;;;;;;;;;;;;5073283;28;1148;-79
2022/05/18 06:24:00;;;;;;;;;;;;;;;;;;5058907;28;1160;-79
2022/05/18 06:26:25;;;;;;;;;;;;;;;;;;5088245;28;1017;-80
2022/05/18 06:28:51;;;;;;;;;;;;;;;;;;5085906;28;1388;-80
2022/05/18 06:31:16;;;;;;;;;;;;;;;;;;5071363;28;1164;-80
2022/05/18 06:33:42;;;;;;;;;;;;;;;;;;5082884;28;1224;-81
2022/05/18 06:36:11;;;;;;;;;;;;;;;;;;5057479;28;1894;-79
2022/05/18 06:38:36;;;;;;;;;;;;;;;;;;5047400;28;1333;-80
2022/05/18 06:43:45;;;;;;;;;;;;;;;;;;5071879;28;1041;-80
2022/05/18 06:46:20;;;;;;;;;;;;;;;;;;5059614;28;1347;-82
2022/05/18 06:48:45;;;;;;;;;;;;;;;;;;5054177;28;1161;-79
2022/05/18 06:51:14;;;;;;;;;;;;;;;;;;5064502;28;1472;-79
2022/05/18 06:53:40;;;;;;;;;;;;;;;;;;5068454;28;1405;-79
2022/05/18 06:56:06;;;;;;;;;;;;;;;;;;5087118;28;1880;-77
2022/05/18 06:58:31;;;;;;;;;;;;;;;;;;5087551;28;822;-79
2022/05/18 07:00:57;;;;;;;;;;;;;;;;;;5087568;28;988;-80
2022/05/18 07:03:22;;;;;;;;;;;;;;;;;;5071358;28;1347;-79
2022/05/18 07:05:47;;;;;;;;;;;;;;;;;;5071510;28;1155;-80
2022/05/18 07:08:13;;;;;;;;;;;;;;;;;;5071226;28;1167;-79
2022/05/18 07:10:39;;;;;;;;;;;;;;;;;;5072352;28;862;-80
2022/05/18 07:13:04;;;;;;;;;;;;;;;;;;5072151;28;861;-79
2022/05/18 07:15:29;;;;;;;;;;;;;;;;;;5071909;28;1960;-78
2022/05/18 07:17:55;;;;;;;;;;;;;;;;;;5070654;28;1208;-78
2022/05/18 07:20:20;;;;;;;;;;;;;;;;;;5069385;28;1199;-80
2022/05/18 07:22:45;;;;;;;;;;;;;;;;;;5051929;28;1403;-78
2022/05/18 07:25:11;;;;;;;;;;;;;;;;;;5033150;28;1168;-79
2022/05/18 07:27:36;;;;;;;;;;;;;;;;;;5024849;28;1193;-79
2022/05/18 07:30:03;;;;;;;;;;;;;;;;;;5047955;28;1169;-79
2022/05/18 07:32:28;;;;;;;;;;;;;;;;;;5038895;28;1221;-77
2022/05/18 07:34:53;;;;;;;;;;;;;;;;;;5053618;28;1237;-77
2022/05/18 07:37:19;;;;;;;;;;;;;;;;;;5066288;28;1874;-78
2022/05/18 07:39:44;;;;;;;;;;;;;;;;;;5056779;28;1165;-77
2022/05/18 07:42:13;;;;;;;;;;;;;;;;;;5067325;28;1248;-76
2022/05/18 07:44:39;;;;;;;;;;;;;;;;;;5062681;28;1131;-77
2022/05/18 07:47:06;;;;;;;;;;;;;;;;;;5053982;28;1215;-78
2022/05/18 07:49:38;;;;;;;;;;;;;;;;;;5042427;28;1279;-79
2022/05/18 07:52:04;;;;;;;;;;;;;;;;;;5020834;28;1286;-78
2022/05/18 07:54:29;;;;;;;;;;;;;;;;;;5070407;28;1165;-78
2022/05/18 07:56:55;;;;;;;;;;;;;;;;;;5049616;28;1878;-78
2022/05/18 07:59:20;;;;;;;;;;;;;;;;;;5053953;28;1133;-78
2022/05/18 08:01:45;;;;;;;;;;;;;;;;;;5057239;28;1146;-79
2022/05/18 08:04:11;;;;;;;;;;;;;;;;;;5061809;28;1244;-80
2022/05/18 08:06:36;;;;;;;;;;;;;;;;;;5062777;28;1192;-80
2022/05/18 08:09:02;;;;;;;;;;;;;;;;;;5053247;28;1672;-79
2022/05/18 08:16:55;;;;;;;;;;;;;;;;;;5066423;28;1904;-74
2022/05/18 08:19:21;;;;;;;;;;;;;;;;;;5063958;28;1168;-79
2022/05/18 08:21:47;;;;;;;;;;;;;;;;;;5058589;28;1245;-78
2022/05/18 08:24:12;;;;;;;;;;;;;;;;;;5072658;28;1085;-78
2022/05/18 08:26:38;;;;;;;;;;;;;;;;;;5070072;28;1320;-78
2022/05/18 08:29:04;;;;;;;;;;;;;;;;;;5071006;28;1163;-78
2022/05/18 08:31:30;;;;;;;;;;;;;;;;;;5068793;28;760;-77
2022/05/18 08:33:55;;;;;;;;;;;;;;;;;;5089381;28;713;-79
2022/05/18 08:36:21;;;;;;;;;;;;;;;;;;5071048;28;1959;-78
2022/05/18 08:38:46;;;;;;;;;;;;;;;;;;5061539;28;1179;-78
2022/05/18 08:41:22;;;;;;;;;;;;;;;;;;5071742;28;921;-78
2022/05/18 08:43:51;;;;;;;;;;;;;;;;;;5073486;28;795;-77
2022/05/18 08:46:17;;;;;;;;;;;;;;;;;;5072124;28;1449;-78
2022/05/18 08:48:43;;;;;;;;;;;;;;;;;;5071919;28;1189;-76
2022/05/18 08:51:27;;;;;;;;;;;;;;;;;;5071860;28;1231;-78
2022/05/18 08:53:57;;;;;;;;;;;;;;;;;;5061055;28;1215;-80
2022/05/18 08:56:25;;;;;;;;;;;;;;;;;;5046207;28;1892;-82
2022/05/18 08:58:52;;;;;;;;;;;;;;;;;;5057546;28;1176;-81
2022/05/18 09:01:20;;;;;;;;;;;;;;;;;;5057008;28;1282;-80
2022/05/18 09:03:56;;;;;;;;;;;;;;;;;;5064038;28;1409;-82
2022/05/18 09:06:39;;;;;;;;;;;;;;;;;;5058191;28;1263;-80
2022/05/18 09:11:51;;;;;;;;;;;;;;;;;;5063531;28;1092;-76
2022/05/18 09:14:26;;;;;;;;;;;;;;;;;;5047040;28;1193;-78
2022/05/18 09:16:52;;;;;;;;;;;;;;;;;;5067905;28;1906;-78
2022/05/18 09:19:48;;;;;;;;;;;;;;;;;;5065069;28;1282;-78
2022/05/18 09:22:32;;;;;;;;;;;;;;;;;;5067216;28;1353;-78
2022/05/18 09:25:03;;;;;;;;;;;;;;;;;;5067209;28;905;-77
2022/05/18 09:27:31;;;;;;;;;;;;;;;;;;5066855;28;1364;-78
2022/05/18 09:30:09;;;;;;;;;;;;;;;;;;5065678;28;1154;-77
2022/05/18 09:32:46;;;;;;;;;;;;;;;;;;5067877;28;1308;-77
2022/05/18 09:35:39;;;;;;;;;;;;;;;;;;5064116;28;1084;-77
2022/05/18 09:38:13;;;;;;;;;;;;;;;;;;5064564;28;1160;-77
2022/05/18 09:40:43;;;;;;;;;;;;;;;;;;5065736;28;902;-78
2022/05/18 09:43:24;;;;;;;;;;;;;;;;;;5054266;28;1167;-77
2022/05/18 09:45:50;;;;;;;;;;;;;;;;;;5060593;28;1204;-78
2022/05/18 09:48:24;;;;;;;;;;;;;;;;;;5049923;28;1284;-77
2022/05/18 09:50:50;;;;;;;;;;;;;;;;;;5040671;28;1218;-78
2022/05/18 09:53:16;;;;;;;;;;;;;;;;;;5047698;28;1312;-77
2022/05/18 09:55:44;;;;;;;;;;;;;;;;;;5046494;28;1945;-78
2022/05/18 09:58:14;;;;;;;;;;;;;;;;;;5047920;28;1195;-77
2022/05/18 10:00:40;;;;;;;;;;;;;;;;;;5045253;28;1155;-77
2022/05/18 10:08:47;;;;;;;;;;;;;;;;;;5048439;28;683;-77
2022/05/18 10:11:17;;;;;;;;;;;;;;;;;;5045878;28;1345;-78
2022/05/18 10:13:49;;;;;;;;;;;;;;;;;;5046340;28;1330;-78
2022/05/18 10:16:38;;;;;;;;;;;;;;;;;;5054858;28;1902;-78
2022/05/18 10:19:04;;;;;;;;;;;;;;;;;;5039279;28;1264;-77
2022/05/18 10:21:34;;;;;;;;;;;;;;;;;;5040854;28;1487;-77
2022/05/18 10:24:02;;;;;;;;;;;;;;;;;;5056979;28;1310;-80
2022/05/18 10:26:30;;;;;;;;;;;;;;;;;;5064393;28;1550;-80
2022/05/18 10:29:00;;;;;;;;;;;;;;;;;;5066251;28;1140;-80
2022/05/18 10:31:28;;;;;;;;;;;;;;;;;;5043568;28;1262;-79
2022/05/18 10:34:07;;;;;;;;;;;;;;;;;;5046831;28;787;-80
2022/05/18 10:36:41;;;;;;;;;;;;;;;;;;5038801;28;1886;-80
2022/05/18 10:39:07;;;;;;;;;;;;;;;;;;5047257;28;917;-80
2022/05/18 10:41:43;;;;;;;;;;;;;;;;;;5043544;28;1186;-79
2022/05/18 10:44:21;;;;;;;;;;;;;;;;;;5048114;28;826;-80
2022/05/18 10:46:48;;;;;;;;;;;;;;;;;;5044674;28;1197;-80
2022/05/18 10:49:49;;;;;;;;;;;;;;;;;;5046449;28;1278;-79
2022/05/18 10:52:33;;;;;;;;;;;;;;;;;;5047216;28;830;-79
2022/05/18 10:54:59;;;;;;;;;;;;;;;;;;5046943;28;873;-77
2022/05/18 10:57:33;;;;;;;;;;;;;;;;;;5045770;28;1898;-77
2022/05/18 11:00:17;;;;;;;;;;;;;;;;;;5059448;28;1192;-78
2022/05/18 11:02:58;;;;;;;;;;;;;;;;;;5050406;28;1299;-77
2022/05/18 11:05:32;;;;;;;;;;;;;;;;;;5051735;28;1137;-77
2022/05/18 11:07:58;;;;;;;;;;;;;;;;;;5055060;28;1097;-77
2022/05/18 11:10:29;;;;;;;;;;;;;;;;;;5050510;28;1394;-77
2022/05/18 11:13:10;;;;;;;;;;;;;;;;;;5055743;28;1441;-77
2022/05/18 11:15:47;;;;;;;;;;;;;;;;;;5050147;28;1915;-77
2022/05/18 11:18:48;;;;;;;;;;;;;;;;;;5071749;28;1180;-77
2022/05/18 11:21:15;;;;;;;;;;;;;;;;;;4977344;28;1323;-78
2022/05/18 11:23:45;;;;;;;;;;;;;;;;;;5043702;28;1280;-78
2022/05/18 11:26:16;;;;;;;;;;;;;;;;;;5063023;28;1364;-77
2022/05/18 11:28:45;;;;;;;;;;;;;;;;;;5069605;28;1334;-77
2022/05/18 11:31:10;;;;;;;;;;;;;;;;;;5069476;28;1242;-76
2022/05/18 11:33:42;;;;;;;;;;;;;;;;;;5071491;28;981;-76
2022/05/18 11:36:32;;;;;;;;;;;;;;;;;;5065219;28;1949;-77
2022/05/18 11:38:57;;;;;;;;;;;;;;;;;;5069111;28;1297;-76
2022/05/18 11:41:22;;;;;;;;;;;;;;;;;;5070320;28;865;-80
2022/05/18 11:43:57;;;;;;;;;;;;;;;;;;5070158;28;1084;-83
2022/05/18 11:46:33;;;;;;;;;;;;;;;;;;5088383;28;1503;-87
2022/05/18 11:49:55;;;;;;;;;;;;;;;;;;5073799;28;829;-84
2022/05/18 11:52:20;;;;;;;;;;;;;;;;;;5061961;28;1122;-87
2022/05/18 11:54:48;;;;;;;;;;;;;;;;;;5067752;28;1376;-85
2022/05/18 11:57:36;;;;;;;;;;;;;;;;;;5049401;28;1961;-87
2022/05/18 12:00:07;;;;;;;;;;;;;;;;;;5053101;28;1144;-85
2022/05/18 12:02:39;;;;;;;;;;;;;;;;;;5052025;28;1263;-84
2022/05/18 12:05:04;;;;;;;;;;;;;;;;;;5049262;28;1185;-85
2022/05/18 12:07:50;;;;;;;;;;;;;;;;;;5070595;28;1232;-86
2022/05/18 12:10:24;;;;;;;;;;;;;;;;;;5060763;28;1234;-85
2022/05/18 12:13:04;;;;;;;;;;;;;;;;;;5067779;28;1159;-85
2022/05/18 12:15:30;;;;;;;;;;;;;;;;;;5060944;28;1918;-85
2022/05/18 12:17:58;;;;;;;;;;;;;;;;;;5047505;28;1151;-85
2022/05/18 12:20:43;;;;;;;;;;;;;;;;;;5042719;28;1431;-86
2022/05/18 12:23:15;;;;;;;;;;;;;;;;;;5050671;28;932;-85
2022/05/18 12:25:40;;;;;;;;;;;;;;;;;;5045667;28;1184;-77
2022/05/18 12:28:06;;;;;;;;;;;;;;;;;;5050180;28;799;-74
2022/05/18 12:30:38;;;;;;;;;;;;;;;;;;5045619;28;886;-74
2022/05/18 12:33:04;;;;;;;;;;;;;;;;;;5046457;28;1289;-75
2022/05/18 12:35:42;;;;;;;;;;;;;;;;;;5040669;28;1870;-74
2022/05/18 12:38:12;;;;;;;;;;;;;;;;;;5052362;28;1037;-76
2022/05/18 12:40:46;;;;;;;;;;;;;;;;;;5065864;28;1137;-75
2022/05/18 12:43:14;;;;;;;;;;;;;;;;;;5066241;28;1204;-74
2022/05/18 12:45:42;;;;;;;;;;;;;;;;;;5064265;28;1391;-74
2022/05/18 12:48:12;;;;;;;;;;;;;;;;;;5066015;28;1208;-74
2022/05/18 12:50:53;;;;;;;;;;;;;;;;;;5056695;28;1362;-74
2022/05/18 12:53:22;;;;;;;;;;;;;;;;;;5085078;28;1162;-75
2022/05/18 12:55:57;;;;;;;;;;;;;;;;;;5058846;28;1878;-75
2022/05/18 12:58:43;;;;;;;;;;;;;;;;;;5048176;28;1362;-77
2022/05/18 13:01:10;;;;;;;;;;;;;;;;;;5048101;28;1220;-77
2022/05/18 13:03:43;;;;;;;;;;;;;;;;;;5048986;28;1270;-77
2022/05/18 13:06:32;;;;;;;;;;;;;;;;;;5053251;28;1125;-77
2022/05/18 13:08:59;;;;;;;;;;;;;;;;;;5046060;28;1266;-78
2022/05/18 13:11:32;;;;;;;;;;;;;;;;;;5064111;28;1112;-77
2022/05/18 13:14:00;;;;;;;;;;;;;;;;;;5043155;28;1254;-77
2022/05/18 13:16:55;;;;;;;;;;;;;;;;;;5062289;28;1905;-76
2022/05/18 13:19:27;;;;;;;;;;;;;;;;;;5035699;28;1281;-75
2022/05/18 13:22:11;;;;;;;;;;;;;;;;;;5048480;28;1278;-78
2022/05/18 13:24:46;;;;;;;;;;;;;;;;;;5040760;28;1294;-83
2022/05/18 13:27:20;;;;;;;;;;;;;;;;;;5057092;28;1228;-78
2022/05/18 13:29:47;;;;;;;;;;;;;;;;;;5048028;28;1284;-78
2022/05/18 13:32:15;;;;;;;;;;;;;;;;;;5047128;28;1341;-76
2022/05/18 13:34:52;;;;;;;;;;;;;;;;;;5051482;28;1196;-82
2022/05/18 13:37:19;;;;;;;;;;;;;;;;;;5068559;28;1870;-81
2022/05/18 13:39:45;;;;;;;;;;;;;;;;;;5065857;28;822;-82
2022/05/18 13:42:27;;;;;;;;;;;;;;;;;;5067641;28;759;-82
2022/05/18 13:44:57;;;;;;;;;;;;;;;;;;5063235;28;1317;-82
2022/05/18 13:47:34;;;;;;;;;;;;;;;;;;5066287;28;1306;-82
2022/05/18 13:50:07;;;;;;;;;;;;;;;;;;5057984;28;926;-81
2022/05/18 13:52:34;;;;;;;;;;;;;;;;;;5056476;28;1175;-81
2022/05/18 13:55:04;;;;;;;;;;;;;;;;;;5056925;28;1162;-81
2022/05/18 13:57:37;;;;;;;;;;;;;;;;;;5078646;28;1945;-81
2022/05/18 14:00:03;;;;;;;;;;;;;;;;;;5066538;28;1301;-81
2022/05/18 14:02:35;;;;;;;;;;;;;;;;;;5035080;28;1215;-85
2022/05/18 14:05:11;;;;;;;;;;;;;;;;;;5060996;28;1173;-80
2022/05/18 14:07:38;;;;;;;;;;;;;;;;;;5062677;28;1180;-81
2022/05/18 14:10:05;;;;;;;;;;;;;;;;;;5052799;28;1386;-83
2022/05/18 14:12:31;;;;;;;;;;;;;;;;;;5081549;28;1284;-79
2022/05/18 14:14:56;;;;;;;;;;;;;;;;;;5057389;28;1160;-77
2022/05/18 14:17:28;;;;;;;;;;;;;;;;;;5048728;28;1930;-77
2022/05/18 14:19:59;;;;;;;;;;;;;;;;;;5060116;28;1255;-78
2022/05/18 14:22:28;;;;;;;;;;;;;;;;;;5048104;28;1274;-78
2022/05/18 14:25:11;;;;;;;;;;;;;;;;;;5065265;28;1257;-77
2022/05/18 14:27:45;;;;;;;;;;;;;;;;;;5043974;28;1223;-78
2022/05/18 14:30:16;;;;;;;;;;;;;;;;;;5046134;28;1149;-77
2022/05/18 14:32:50;;;;;;;;;;;;;;;;;;5070957;28;1276;-78
2022/05/18 14:35:19;;;;;;;;;;;;;;;;;;5067201;28;1286;-78
2022/05/18 14:37:55;;;;;;;;;;;;;;;;;;5065909;28;1894;-78
2022/05/18 14:40:23;;;;;;;;;;;;;;;;;;5070633;28;1208;-78
2022/05/18 14:42:52;;;;;;;;;;;;;;;;;;5069447;28;1154;-78
2022/05/18 14:45:32;;;;;;;;;;;;;;;;;;5075408;28;1206;-78
2022/05/18 14:48:08;;;;;;;;;;;;;;;;;;5075457;28;1175;-78
2022/05/18 14:50:38;;;;;;;;;;;;;;;;;;5072437;28;1152;-77
2022/05/18 14:53:04;;;;;;;;;;;;;;;;;;5060379;28;1354;-77
2022/05/18 14:55:36;;;;;;;;;;;;;;;;;;5073706;28;1304;-78
2022/05/18 14:58:02;;;;;;;;;;;;;;;;;;5057556;28;1279;-78
2022/05/18 15:00:34;;;;;;;;;;;;;;;;;;5072209;28;1261;-77
2022/05/18 15:03:04;;;;;;;;;;;;;;;;;;5068397;28;1230;-78
2022/05/18 15:05:30;;;;;;;;;;;;;;;;;;5068578;28;1245;-78
2022/05/18 15:08:00;;;;;;;;;;;;;;;;;;5070023;28;1215;-78
2022/05/18 15:10:33;;;;;;;;;;;;;;;;;;5070086;28;1088;-78
2022/05/18 15:13:17;;;;;;;;;;;;;;;;;;5070963;28;1363;-78
2022/05/18 15:16:00;;;;;;;;;;;;;;;;;;5068981;28;1963;-78
2022/05/18 15:18:34;;;;;;;;;;;;;;;;;;5070878;28;1393;-78
2022/05/18 15:21:08;;;;;;;;;;;;;;;;;;5064269;28;1183;-78
2022/05/18 15:23:35;;;;;;;;;;;;;;;;;;5068434;28;1299;-78
2022/05/18 15:26:24;;;;;;;;;;;;;;;;;;5069892;28;1155;-78
2022/05/18 15:28:57;;;;;;;;;;;;;;;;;;5061835;28;1270;-78
2022/05/18 15:31:37;;;;;;;;;;;;;;;;;;5068590;28;1290;-78
2022/05/18 15:34:14;;;;;;;;;;;;;;;;;;5071238;28;1199;-80
2022/05/18 15:36:40;;;;;;;;;;;;;;;;;;5064155;28;1998;-78
2022/05/18 15:39:06;;;;;;;;;;;;;;;;;;5069952;28;1279;-77
2022/05/18 15:41:31;;;;;;;;;;;;;;;;;;5052741;28;1191;-76
2022/05/18 15:43:56;;;;;;;;;;;;;;;;;;5030882;28;1375;-83
2022/05/18 15:46:40;;;;;;;;;;;;;;;;;;5077451;28;1202;-82
2022/05/18 15:49:07;;;;;;;;;;;;;;;;;;5026969;28;1262;-84
2022/05/18 15:51:33;;;;;;;;;;;;;;;;;;5024042;28;1250;-83
2022/05/18 15:54:00;;;;;;;;;;;;;;;;;;5046596;28;1291;-83
2022/05/18 15:56:26;;;;;;;;;;;;;;;;;;5059593;28;1886;-84
2022/05/18 15:58:51;;;;;;;;;;;;;;;;;;5082279;28;1328;-85
2022/05/18 16:01:17;;;;;;;;;;;;;;;;;;5028236;28;1300;-86
2022/05/18 16:03:42;;;;;;;;;;;;;;;;;;5063050;28;909;-83
2022/05/18 16:06:17;;;;;;;;;;;;;;;;;;5040882;28;965;-83
2022/05/18 16:08:43;;;;;;;;;;;;;;;;;;5041353;28;1351;-85
2022/05/18 16:11:12;;;;;;;;;;;;;;;;;;5042943;28;1096;-87
2022/05/18 16:13:40;;;;;;;;;;;;;;;;;;5046134;28;1243;-85
2022/05/18 16:16:06;;;;;;;;;;;;;;;;;;5040488;28;1906;-85
2022/05/18 16:18:31;;;;;;;;;;;;;;;;;;5045370;28;1227;-84
2022/05/18 16:20:58;;;;;;;;;;;;;;;;;;5037739;28;1192;-84
2022/05/18 16:23:24;;;;;;;;;;;;;;;;;;5044925;28;1542;-83
2022/05/18 16:25:56;;;;;;;;;;;;;;;;;;5058604;28;964;-84
2022/05/18 16:28:23;;;;;;;;;;;;;;;;;;5052651;28;1299;-85
2022/05/18 16:30:56;;;;;;;;;;;;;;;;;;5063346;28;783;-85
2022/05/18 16:33:26;;;;;;;;;;;;;;;;;;5046397;28;1199;-85
2022/05/18 16:35:59;;;;;;;;;;;;;;;;;;5060627;28;1955;-83
2022/05/18 16:38:24;;;;;;;;;;;;;;;;;;5052251;28;1289;-83
2022/05/18 16:40:57;;;;;;;;;;;;;;;;;;5056097;28;1208;-81
2022/05/18 16:43:27;;;;;;;;;;;;;;;;;;5039517;28;1287;-81
2022/05/18 16:45:56;;;;;;;;;;;;;;;;;;5046760;28;1376;-82
2022/05/18 16:48:23;;;;;;;;;;;;;;;;;;5051442;28;1046;-82
2022/05/18 16:50:49;;;;;;;;;;;;;;;;;;5043433;28;1356;-81
2022/05/18 16:53:15;;;;;;;;;;;;;;;;;;5051166;28;1367;-83
2022/05/18 16:55:40;;;;;;;;;;;;;;;;;;5048892;28;1890;-80
2022/05/18 16:58:05;;;;;;;;;;;;;;;;;;5036774;28;1296;-81
2022/05/18 17:00:31;;;;;;;;;;;;;;;;;;5080564;28;1172;-82
2022/05/18 17:02:56;;;;;;;;;;;;;;;;;;5041451;28;1335;-82
2022/05/18 17:10:49;;;;;;;;;;;;;;;;;;5077137;28;1002;-82
2022/05/18 17:13:19;;;;;;;;;;;;;;;;;;5028593;28;1349;-83
2022/05/18 17:15:45;;;;;;;;;;;;;;;;;;5055185;28;1964;-83
2022/05/18 17:18:10;;;;;;;;;;;;;;;;;;5051845;28;1232;-84
2022/05/18 17:20:35;;;;;;;;;;;;;;;;;;5059075;28;1040;-82
2022/05/18 17:23:00;;;;;;;;;;;;;;;;;;5062893;28;1173;-81
2022/05/18 17:25:26;;;;;;;;;;;;;;;;;;5054542;28;1327;-82
2022/05/18 17:27:52;;;;;;;;;;;;;;;;;;5049571;28;1192;-83
2022/05/18 17:30:17;;;;;;;;;;;;;;;;;;5050636;28;1167;-83
2022/05/18 17:32:47;;;;;;;;;;;;;;;;;;5061009;28;1176;-82
2022/05/18 17:35:23;;;;;;;;;;;;;;;;;;5046894;28;1240;-85
2022/05/18 17:37:50;;;;;;;;;;;;;;;;;;5082575;28;1960;-85
2022/05/18 17:40:22;;;;;;;;;;;;;;;;;;5054636;28;1165;-83
2022/05/18 17:42:48;;;;;;;;;;;;;;;;;;5071506;28;1156;-84
2022/05/18 17:45:13;;;;;;;;;;;;;;;;;;5048223;28;1089;-84